16  °C
Temperature
61  °F
Temperature
45  °F
 Dewpoint
7  °C
  Dewpoint
55  %
 Humidity
  Temperature
21  km/h
Wind Speed
11  kts
Wind Speed
13  mph
Wind Speed
5.8  m/s
Wind Speed
280°
Due West

Wind Speed
Clear
Conditions
Pressure 1020.92 (hPa) - 30.15 (inHG)
Visibility 10.0 (km) - 6.2 (mi)

Sky Conditions
LHBP
Location Budapest Ferenc Liszt International 20 km (12.43 mi)
Metar :LHBP 181600Z 28011KT CAVOK 16/07 Q1021 NOSIG
Wed 18th September 17:00 pm

Nearest Airport
https://www.checkwx.com/weather/LHBP
  Metar Aviation API Data Provided by https://www.checkwx.com/ Original CSS/SVG/PHP scripts by weather34.com © 2015-2019